Time;durP1;ratioP1;P1;durP2;ratioP2;P2;SDS_P1;SDS_P2;PMS_P1;PMS_P2;Temp;Humidity;BMP_temperature;BMP_pressure;BME280_temperature;BME280_humidity;BME280_pressure;Samples;Min_cycle;Max_cycle;Signal;HPM_P1;HPM_P2
2023/10/26 00:01:00;;;;;;;12.60;5.75;;;11.90;99.90;;;11.81;nan;98930.78;5207675;28;20038;-48
2023/10/26 00:03:33;;;;;;;12.70;5.45;;;11.80;99.90;;;11.81;nan;98935.13;5213407;28;20046;-48
2023/10/26 00:06:05;;;;;;;12.02;4.97;;;11.80;99.90;;;11.80;nan;98933.34;5222813;28;20060;-48
2023/10/26 00:08:38;;;;;;;11.98;5.50;;;11.90;99.90;;;11.79;nan;98936.81;5213014;28;20403;-48
2023/10/26 00:11:12;;;;;;;11.32;5.45;;;11.80;99.90;;;11.79;nan;98942.91;5212744;28;20125;-47
2023/10/26 00:13:44;;;;;;;12.88;5.90;;;11.80;99.90;;;11.80;nan;98949.00;5224261;28;20412;-47
2023/10/26 00:16:16;;;;;;;11.73;5.68;;;11.80;99.90;;;11.79;nan;98937.69;5216840;28;20427;-47
2023/10/26 00:18:49;;;;;;;12.55;5.18;;;11.80;99.90;;;11.79;nan;98955.09;5221073;28;20535;-47
2023/10/26 00:21:21;;;;;;;14.10;5.75;;;11.80;99.90;;;11.77;nan;98946.41;5220541;28;20059;-47
2023/10/26 00:23:57;;;;;;;12.30;5.70;;;11.80;99.90;;;11.78;nan;98958.56;5214191;28;20049;-47
2023/10/26 00:26:31;;;;;;;15.63;7.03;;;11.80;99.90;;;11.78;nan;98961.19;5218417;28;20048;-48
2023/10/26 00:29:03;;;;;;;14.15;6.15;;;11.80;99.90;;;11.74;nan;98962.06;5215865;28;20041;-48
2023/10/26 00:31:36;;;;;;;15.30;6.22;;;11.80;99.90;;;11.72;nan;98962.03;5220118;28;20053;-48
2023/10/26 00:34:11;;;;;;;13.63;6.32;;;11.80;99.90;;;11.72;nan;98961.19;5216038;28;20408;-48
2023/10/26 00:36:45;;;;;;;13.00;5.78;;;11.80;99.90;;;11.73;nan;98968.13;5218790;28;20409;-48
2023/10/26 00:39:18;;;;;;;;;;;11.80;99.90;;;11.72;nan;98971.63;5221961;28;20040;-48
2023/10/26 00:41:56;;;;;;;14.23;6.07;;;11.80;99.90;;;11.69;nan;98983.81;5220180;28;19971;-48
2023/10/26 00:44:28;;;;;;;13.23;6.20;;;11.80;99.90;;;11.67;nan;98985.56;5218370;28;20068;-48
2023/10/26 00:47:02;;;;;;;13.30;6.18;;;11.70;99.90;;;11.67;nan;98990.78;5220559;28;20103;-48
2023/10/26 00:49:34;;;;;;;11.60;5.13;;;11.70;99.90;;;11.65;nan;98984.66;5217929;28;20091;-48
2023/10/26 00:52:07;;;;;;;15.13;6.70;;;11.70;99.90;;;11.65;nan;98992.50;5218641;28;20077;-48
2023/10/26 00:54:43;;;;;;;14.30;6.63;;;11.70;99.90;;;11.64;nan;98989.88;5216794;28;20049;-48
2023/10/26 00:57:19;;;;;;;15.23;6.50;;;11.70;99.90;;;11.61;nan;98995.13;5222930;28;20049;-48
2023/10/26 00:59:52;;;;;;;13.02;5.80;;;11.70;99.90;;;11.60;nan;99003.78;5216766;28;20045;-48
2023/10/26 01:02:25;;;;;;;14.55;6.68;;;11.60;99.90;;;11.57;nan;99003.78;5215776;28;20046;-48
2023/10/26 01:04:57;;;;;;;16.55;7.05;;;11.60;99.90;;;11.56;nan;99002.06;5216001;28;20045;-48
2023/10/26 01:07:29;;;;;;;14.90;6.50;;;11.60;99.90;;;11.54;nan;99004.66;5219905;28;20378;-48
2023/10/26 01:10:02;;;;;;;13.25;6.20;;;11.60;99.90;;;11.54;nan;99009.88;5215147;28;20095;-48
2023/10/26 01:12:36;;;;;;;15.35;6.47;;;11.60;99.90;;;11.51;nan;99007.25;5218757;28;20044;-48
2023/10/26 01:15:10;;;;;;;15.35;7.10;;;11.60;99.90;;;11.49;nan;99016.81;5227014;28;20048;-48
2023/10/26 01:17:42;;;;;;;14.40;6.53;;;11.50;99.90;;;11.46;nan;99029.84;5223703;28;20049;-48
2023/10/26 01:21:48;;;;;;;16.05;6.75;;;11.50;99.90;;;11.46;100.00;99026.34;5287724;27;20411;-47
2023/10/26 01:24:21;;;;;;;14.32;6.53;;;11.50;99.90;;;11.44;100.00;99034.19;5257354;28;20535;-48
2023/10/26 01:26:53;;;;;;;16.95;6.90;;;11.50;99.90;;;11.47;100.00;99036.78;5262201;28;20044;-48
2023/10/26 01:29:26;;;;;;;14.98;6.43;;;11.50;99.90;;;11.48;100.00;99041.16;5259351;28;20048;-48
2023/10/26 01:31:59;;;;;;;14.70;6.47;;;11.50;99.90;;;11.48;100.00;99041.16;5259395;28;20088;-47
2023/10/26 01:34:33;;;;;;;14.10;6.50;;;11.60;99.90;;;11.49;100.00;99048.13;5262092;28;20055;-47
2023/10/26 01:37:07;;;;;;;13.40;5.45;;;11.50;99.90;;;11.51;100.00;99042.91;5262999;28;20085;-47
2023/10/26 01:39:39;;;;;;;15.00;6.45;;;11.60;99.90;;;11.53;100.00;99044.66;5273322;28;20465;-47
2023/10/26 01:42:12;;;;;;;14.98;6.38;;;11.60;99.90;;;11.52;100.00;99050.72;5261064;28;20575;-47
2023/10/26 01:44:45;;;;;;;14.07;6.05;;;11.60;99.90;;;11.48;100.00;99050.75;5258407;28;20543;-47
2023/10/26 01:47:17;;;;;;;14.77;6.13;;;11.60;99.90;;;11.49;100.00;99042.91;5262850;28;20050;-47
2023/10/26 01:49:49;;;;;;;17.17;7.03;;;11.60;99.90;;;11.47;100.00;99049.84;5272965;28;20051;-47
2023/10/26 01:52:23;;;;;;;15.23;6.80;;;11.50;99.90;;;11.45;100.00;99046.38;5261320;28;20056;-48
2023/10/26 01:54:55;;;;;;;13.48;5.35;;;11.50;99.90;;;11.47;100.00;99048.97;5262681;28;20040;-47
2023/10/26 01:57:28;;;;;;;19.20;7.93;;;11.50;99.90;;;11.48;100.00;99046.38;5259285;28;20056;-48
2023/10/26 02:00:00;;;;;;;16.63;7.07;;;11.50;99.90;;;11.47;100.00;99039.41;5262039;28;20028;-48
2023/10/26 02:02:33;;;;;;;16.50;6.53;;;11.50;99.90;;;11.48;100.00;99042.91;5259105;28;20109;-48
2023/10/26 02:05:06;;;;;;;14.75;6.20;;;11.50;99.90;;;11.50;100.00;99047.25;5262074;28;20054;-48
2023/10/26 02:07:40;;;;;;;13.82;6.40;;;11.50;99.90;;;11.53;100.00;99049.00;5253977;28;20121;-47
2023/10/26 02:10:15;;;;;;;15.70;7.28;;;11.50;99.90;;;11.55;100.00;99055.97;5262157;28;20152;-48
2023/10/26 02:12:50;;;;;;;16.10;6.97;;;11.60;99.90;;;11.55;100.00;99058.59;5262132;28;20050;-47
2023/10/26 02:15:23;;;;;;;16.27;6.68;;;11.60;99.90;;;11.53;100.00;99049.00;5265282;28;20052;-47
2023/10/26 02:17:55;;;;;;;16.90;7.03;;;11.60;99.90;;;11.53;100.00;99049.84;5258925;28;20503;-47
2023/10/26 02:20:28;;;;;;;16.13;7.03;;;11.60;99.90;;;11.51;100.00;99048.13;5261488;28;20537;-47
2023/10/26 02:23:02;;;;;;;12.80;5.53;;;11.50;99.90;;;11.50;100.00;99052.47;5262218;28;20063;-49
2023/10/26 02:25:34;;;;;;;14.73;6.28;;;11.60;99.90;;;11.49;100.00;99053.34;5253176;28;20048;-47
2023/10/26 02:28:07;;;;;;;12.98;5.93;;;11.60;99.90;;;11.47;100.00;99049.84;5260813;28;20054;-47
2023/10/26 02:30:39;;;;;;;16.02;6.15;;;11.50;99.90;;;11.47;100.00;99060.28;5260293;28;20538;-47
2023/10/26 02:33:12;;;;;;;10.40;5.38;;;11.50;99.90;;;11.50;100.00;99055.09;5247782;28;20085;-47
2023/10/26 02:35:48;;;;;;;13.05;5.88;;;11.60;99.90;;;11.52;100.00;99050.72;5247389;28;20143;-47
2023/10/26 02:38:21;;;;;;;15.32;6.25;;;11.60;99.90;;;11.54;100.00;99069.00;5239598;28;20457;-47
2023/10/26 02:40:55;;;;;;;14.73;6.68;;;11.60;99.90;;;11.54;100.00;99066.38;5241030;28;20433;-47
2023/10/26 02:43:27;;;;;;;14.15;6.25;;;11.60;99.90;;;11.53;100.00;99075.94;5244835;28;20048;-47
2023/10/26 02:46:05;;;;;;;12.13;5.95;;;11.50;99.90;;;11.53;100.00;99075.09;5236207;28;20064;-47
2023/10/26 02:48:37;;;;;;;15.20;6.78;;;11.60;99.90;;;11.54;100.00;99072.50;5238716;28;20052;-47
2023/10/26 02:51:10;;;;;;;14.52;6.32;;;11.60;99.90;;;11.54;100.00;99077.72;5244385;28;20051;-48
2023/10/26 02:53:43;;;;;;;14.93;6.85;;;11.60;99.90;;;11.54;100.00;99077.72;5245408;28;20052;-48
2023/10/26 02:56:16;;;;;;;13.23;6.25;;;11.60;99.90;;;11.50;100.00;99073.34;5245567;28;20047;-49
2023/10/26 02:58:48;;;;;;;12.60;5.95;;;11.60;99.90;;;11.52;100.00;99079.44;5241638;28;20664;-48
2023/10/26 03:01:21;;;;;;;14.65;6.18;;;11.60;99.90;;;11.51;100.00;99071.59;5244599;28;20533;-49
2023/10/26 03:03:53;;;;;;;13.27;6.30;;;11.50;99.90;;;11.52;100.00;99079.44;5244167;28;20052;-49
2023/10/26 03:06:25;;;;;;;13.50;6.20;;;11.60;99.90;;;11.52;100.00;99074.22;5246687;28;20055;-48
2023/10/26 03:08:59;;;;;;;13.25;6.22;;;11.60;99.90;;;11.54;100.00;99082.03;5244037;28;20503;-49
2023/10/26 03:11:32;;;;;;;13.93;6.78;;;11.60;99.90;;;11.55;100.00;99071.63;5243857;28;20051;-49
2023/10/26 03:14:05;;;;;;;12.90;6.32;;;11.60;99.90;;;11.57;100.00;99085.53;5246952;28;20044;-48
2023/10/26 03:16:37;;;;;;;14.77;7.25;;;11.60;99.90;;;11.54;100.00;99079.44;5244061;28;20055;-47
2023/10/26 03:19:09;;;;;;;15.93;6.75;;;11.60;99.90;;;11.50;100.00;99078.56;5246295;28;20066;-47
2023/10/26 03:21:42;;;;;;;17.52;8.30;;;11.60;99.90;;;11.47;100.00;99078.53;5241774;28;20771;-48
2023/10/26 03:24:15;;;;;;;17.70;7.82;;;11.50;99.90;;;11.47;100.00;99069.84;5242561;28;20395;-48
2023/10/26 03:26:48;;;;;;;19.27;8.25;;;11.50;99.90;;;11.46;100.00;99068.09;5246418;28;20102;-48
2023/10/26 03:29:21;;;;;;;18.67;8.80;;;11.50;99.90;;;11.45;100.00;99077.66;5245739;28;20047;-47
2023/10/26 03:31:53;;;;;;;15.98;7.32;;;11.50;99.90;;;11.45;100.00;99076.81;5246616;28;20478;-47
2023/10/26 03:34:25;;;;;;;18.45;7.93;;;11.50;99.90;;;11.45;100.00;99080.28;5243659;28;20052;-47
2023/10/26 03:36:58;;;;;;;17.85;7.70;;;11.50;99.90;;;11.45;100.00;99077.66;5243086;28;20403;-49
2023/10/26 03:39:32;;;;;;;16.60;7.47;;;11.50;99.90;;;11.45;100.00;99072.44;5256989;28;20119;-47
2023/10/26 03:42:05;;;;;;;20.08;8.50;;;11.50;99.90;;;11.45;100.00;99080.28;5257604;28;20063;-47
2023/10/26 03:44:37;;;;;;;22.83;8.88;;;11.50;99.90;;;11.42;100.00;99072.47;5249847;28;20063;-48
2023/10/26 03:47:09;;;;;;;21.65;8.80;;;11.50;99.90;;;11.40;100.00;99072.44;5240703;28;20059;-48
2023/10/26 03:49:42;;;;;;;19.63;8.57;;;11.50;99.90;;;11.41;100.00;99070.72;5246070;28;20063;-47
2023/10/26 03:52:14;;;;;;;20.50;8.35;;;11.50;99.90;;;11.40;100.00;99066.34;5246600;28;20037;-48
2023/10/26 03:54:48;;;;;;;18.90;8.15;;;11.50;99.90;;;11.40;100.00;99068.94;5246351;28;20056;-47
2023/10/26 03:57:21;;;;;;;18.48;8.30;;;11.50;99.90;;;11.41;100.00;99063.75;5242946;28;20102;-47
2023/10/26 03:59:53;;;;;;;20.27;9.10;;;11.40;99.90;;;11.41;100.00;99070.72;5245453;28;20040;-47
2023/10/26 04:02:25;;;;;;;17.58;8.40;;;11.50;99.90;;;11.39;100.00;99078.50;5240584;28;20064;-47
2023/10/26 04:04:58;;;;;;;19.48;9.30;;;11.50;99.90;;;11.38;100.00;99070.69;5245903;28;20097;-47
2023/10/26 04:07:30;;;;;;;16.67;8.02;;;11.40;99.90;;;11.36;100.00;99072.44;5240326;28;20407;-47
2023/10/26 04:10:06;;;;;;;16.52;7.18;;;11.40;99.90;;;11.38;100.00;99076.78;5244292;28;20047;-47
2023/10/26 04:12:38;;;;;;;15.43;7.18;;;11.50;99.90;;;11.42;100.00;99072.47;5237127;28;20071;-47
2023/10/26 04:15:11;;;;;;;18.98;9.15;;;11.50;99.90;;;11.43;100.00;99073.31;5240658;28;20052;-47
2023/10/26 04:17:43;;;;;;;18.98;9.07;;;11.50;99.90;;;11.41;100.00;99075.94;5246513;28;20064;-47
2023/10/26 04:20:15;;;;;;;23.20;9.88;;;11.50;99.90;;;11.39;100.00;99069.81;5245205;28;20040;-47
2023/10/26 04:22:48;;;;;;;21.40;9.15;;;11.40;99.90;;;11.38;100.00;99081.13;5244951;28;20109;-47
2023/10/26 04:25:22;;;;;;;20.27;8.43;;;11.50;99.90;;;11.37;100.00;99074.16;5240711;28;20052;-47
2023/10/26 04:27:55;;;;;;;19.88;8.40;;;11.40;99.90;;;11.35;100.00;99070.69;5239937;28;20047;-47
2023/10/26 04:30:27;;;;;;;18.42;8.30;;;11.40;99.90;;;11.32;100.00;99073.28;5244722;28;20470;-47
2023/10/26 04:33:00;;;;;;;16.70;8.30;;;11.40;99.90;;;11.31;100.00;99066.31;5244360;28;20044;-47
2023/10/26 04:35:32;;;;;;;17.98;8.25;;;11.40;99.90;;;11.30;100.00;99073.28;5240013;28;20344;-47
2023/10/26 04:38:05;;;;;;;17.67;7.72;;;11.40;99.90;;;11.30;100.00;99072.41;5237787;28;20082;-47
2023/10/26 04:40:41;;;;;;;18.27;8.35;;;11.40;99.90;;;11.30;100.00;99072.41;5242298;28;20075;-47
2023/10/26 04:43:14;;;;;;;16.83;7.25;;;11.40;99.90;;;11.31;100.00;99068.91;5243796;28;20075;-47
2023/10/26 04:45:47;;;;;;;16.98;8.00;;;11.40;99.90;;;11.32;100.00;99066.31;5241126;28;20040;-47
2023/10/26 04:48:19;;;;;;;15.52;7.72;;;11.40;99.90;;;11.32;100.00;99066.31;5243177;28;20044;-46
2023/10/26 04:50:52;;;;;;;15.63;7.82;;;11.40;99.90;;;11.32;100.00;99061.09;5242057;28;20052;-47
2023/10/26 04:53:25;;;;;;;15.23;7.57;;;11.40;99.90;;;11.30;100.00;99059.34;5245399;28;20048;-47
2023/10/26 04:55:59;;;;;;;16.75;7.70;;;11.40;99.90;;;11.31;100.00;99061.09;5247873;28;20055;-47
2023/10/26 04:58:31;;;;;;;15.43;7.40;;;11.40;99.90;;;11.32;100.00;99065.44;5242338;28;20059;-48
2023/10/26 05:01:03;;;;;;;17.40;7.72;;;11.40;99.90;;;11.33;100.00;99055.00;5244603;28;20072;-48
2023/10/26 05:03:37;;;;;;;17.33;7.95;;;11.40;99.90;;;11.35;100.00;99057.66;5239748;28;20051;-48
2023/10/26 05:06:10;;;;;;;17.63;8.20;;;11.40;99.90;;;11.35;100.00;99060.25;5244099;28;20089;-48
2023/10/26 05:08:42;;;;;;;17.73;7.97;;;11.40;99.90;;;11.34;100.00;99061.09;5237692;28;20044;-47
2023/10/26 05:11:16;;;;;;;15.73;7.43;;;11.40;99.90;;;11.35;100.00;99062.88;5242264;28;20045;-47
2023/10/26 05:13:52;;;;;;;16.13;8.05;;;11.40;99.90;;;11.35;100.00;99065.47;5240906;28;20048;-48
2023/10/26 05:16:24;;;;;;;17.90;8.32;;;11.40;99.90;;;11.35;100.00;99055.91;5241054;28;20422;-48
2023/10/26 05:18:57;;;;;;;17.48;8.38;;;11.40;99.90;;;11.33;100.00;99062.84;5242832;28;20044;-48
2023/10/26 05:21:29;;;;;;;15.90;7.93;;;11.40;99.90;;;11.33;100.00;99051.53;5240729;28;20055;-47
2023/10/26 05:24:03;;;;;;;21.73;9.80;;;11.40;99.90;;;11.32;100.00;99049.78;5238755;28;20040;-49
2023/10/26 05:26:36;;;;;;;16.00;7.53;;;11.30;99.90;;;11.29;100.00;99052.41;5244829;28;20410;-49
2023/10/26 05:29:09;;;;;;;16.60;8.00;;;11.40;99.90;;;11.31;100.00;99048.06;5243036;28;20098;-48
2023/10/26 05:31:41;;;;;;;15.23;7.10;;;11.40;99.90;;;11.34;100.00;99053.25;5242299;28;20048;-47
2023/10/26 05:34:13;;;;;;;13.80;6.05;;;11.40;99.90;;;11.35;100.00;99050.69;5238374;28;20044;-47
2023/10/26 05:36:46;;;;;;;12.88;6.40;;;11.40;99.90;;;11.36;100.00;99051.56;5240278;28;20044;-47
2023/10/26 05:39:19;;;;;;;14.20;6.72;;;11.40;99.90;;;11.36;100.00;99046.34;5242856;28;20044;-47
2023/10/26 05:41:53;;;;;;;17.42;7.60;;;11.40;99.90;;;11.33;100.00;99048.91;5240800;28;20044;-48
2023/10/26 05:44:27;;;;;;;17.83;8.73;;;11.40;99.90;;;11.30;100.00;99044.56;5240331;28;20064;-47
2023/10/26 05:47:00;;;;;;;14.82;6.88;;;11.40;99.90;;;11.30;100.00;99049.78;5242539;28;20151;-47
2023/10/26 05:49:34;;;;;;;13.52;6.13;;;11.30;99.90;;;11.31;100.00;99045.44;5245683;28;20576;-47
2023/10/26 05:52:07;;;;;;;11.55;5.40;;;11.40;99.90;;;11.34;100.00;99053.25;5245357;28;20051;-47
2023/10/26 05:54:39;;;;;;;11.45;6.00;;;11.40;99.90;;;11.35;100.00;99050.69;5241173;28;20064;-47
2023/10/26 05:57:13;;;;;;;11.65;5.68;;;11.40;99.90;;;11.35;100.00;99039.38;5241591;28;20396;-47
2023/10/26 05:59:45;;;;;;;12.95;5.38;;;11.40;99.90;;;11.35;100.00;99037.66;5239749;28;20086;-47
2023/10/26 06:02:18;;;;;;;10.57;5.20;;;11.40;99.90;;;11.36;100.00;99038.50;5242036;28;20048;-47
2023/10/26 06:04:50;;;;;;;12.65;5.80;;;11.40;99.90;;;11.35;100.00;99031.56;5241728;28;20056;-47
2023/10/26 06:07:22;;;;;;;13.90;6.53;;;11.40;99.90;;;11.35;100.00;99042.00;5244116;28;20474;-47
2023/10/26 06:09:55;;;;;;;26.27;13.45;;;11.40;99.90;;;11.31;100.00;99048.06;5244377;28;20102;-47
2023/10/26 06:12:28;;;;;;;18.85;9.93;;;11.30;99.90;;;11.26;100.00;99048.03;5242678;28;20056;-47
2023/10/26 06:15:01;;;;;;;17.92;9.75;;;11.30;99.90;;;11.24;100.00;99051.50;5261097;28;20119;-47
2023/10/26 06:17:33;;;;;;;25.38;15.35;;;11.30;99.90;;;11.21;100.00;99051.47;5239562;28;20052;-47
2023/10/26 06:20:07;;;;;;;24.25;17.80;;;11.30;99.90;;;11.21;100.00;99057.56;5243186;28;20052;-47
2023/10/26 06:22:40;;;;;;;25.35;16.60;;;11.30;99.90;;;11.20;100.00;99057.56;5247544;28;20036;-47
2023/10/26 06:25:12;;;;;;;19.95;13.27;;;11.30;99.90;;;11.22;100.00;99063.69;5245167;28;20055;-46
2023/10/26 06:27:48;;;;;;;32.75;24.65;;;11.30;99.90;;;11.23;100.00;99061.06;5241283;28;20630;-47
2023/10/26 06:30:20;;;;;;;28.88;21.73;;;11.30;99.90;;;11.25;100.00;99068.91;5247880;28;20044;-46
2023/10/26 06:32:53;;;;;;;25.77;17.80;;;11.30;99.90;;;11.23;100.00;99055.84;5247629;28;20062;-47
2023/10/26 06:35:25;;;;;;;24.77;17.08;;;11.30;99.90;;;11.24;100.00;99059.34;5245217;28;20048;-47
2023/10/26 06:37:58;;;;;;;21.75;14.88;;;11.30;99.90;;;11.25;100.00;99064.53;5243398;28;20059;-47
2023/10/26 06:40:31;;;;;;;18.33;12.30;;;11.30;99.90;;;11.28;100.00;99063.66;5247906;28;20050;-46
2023/10/26 06:43:05;;;;;;;19.13;13.50;;;11.30;99.90;;;11.29;100.00;99070.66;5247538;28;20050;-47
2023/10/26 06:45:37;;;;;;;19.58;13.02;;;11.30;99.90;;;11.29;100.00;99065.44;5243210;28;20075;-47
2023/10/26 06:48:11;;;;;;;18.13;13.27;;;11.30;99.90;;;11.32;100.00;99070.66;5262959;28;20503;-48
2023/10/26 06:50:43;;;;;;;17.00;11.32;;;11.30;99.90;;;11.34;100.00;99068.91;5244158;28;20048;-47
2023/10/26 06:53:16;;;;;;;14.50;9.57;;;11.40;99.90;;;11.35;100.00;99065.47;5245219;28;20052;-47
2023/10/26 06:55:48;;;;;;;13.25;7.93;;;11.40;99.90;;;11.36;100.00;99065.47;5252973;28;20068;-48
2023/10/26 06:58:22;;;;;;;11.77;7.00;;;11.40;99.90;;;11.38;100.00;99065.47;5260586;28;20629;-47
2023/10/26 07:00:54;;;;;;;10.55;6.45;;;11.40;99.90;;;11.41;100.00;99075.94;5246942;28;20044;-47
2023/10/26 07:03:27;;;;;;;11.50;6.47;;;11.40;99.90;;;11.43;100.00;99078.53;5247249;28;20121;-47
2023/10/26 07:06:02;;;;;;;10.65;5.65;;;11.40;99.90;;;11.45;100.00;99072.44;5246667;28;20052;-47
2023/10/26 07:08:34;;;;;;;9.57;5.50;;;11.50;99.90;;;11.46;100.00;99074.19;5247212;28;20527;-47
2023/10/26 07:11:07;;;;;;;10.93;5.20;;;11.50;99.90;;;11.48;100.00;99069.88;5244421;28;20509;-47
2023/10/26 07:13:41;;;;;;;8.82;4.65;;;11.50;99.90;;;11.49;100.00;99063.78;5244468;28;20048;-47
2023/10/26 07:16:13;;;;;;;9.05;4.55;;;11.50;99.90;;;11.50;100.00;99057.69;5241175;28;20461;-47
2023/10/26 07:18:46;;;;;;;9.40;4.15;;;11.50;99.90;;;11.50;100.00;99055.09;5246715;28;20059;-47
2023/10/26 07:21:18;;;;;;;8.18;4.10;;;11.50;99.90;;;11.51;100.00;99051.59;5244355;28;20054;-47
2023/10/26 07:23:50;;;;;;;8.55;3.97;;;11.50;99.90;;;11.52;100.00;99053.34;5245549;28;20055;-46
2023/10/26 07:26:23;;;;;;;6.50;3.00;;;11.50;99.90;;;11.62;100.00;99060.34;5246056;28;20055;-46
2023/10/26 07:28:57;;;;;;;7.03;3.20;;;11.60;99.90;;;11.82;100.00;99052.59;5241000;28;20037;-46
2023/10/26 07:31:29;;;;;;;7.55;2.53;;;11.70;99.90;;;11.85;100.00;99054.34;5243614;28;20169;-46
2023/10/26 07:34:02;;;;;;;9.32;4.13;;;11.80;99.90;;;11.82;100.00;99057.81;5244623;28;20643;-46
2023/10/26 07:36:34;;;;;;;11.55;4.20;;;11.80;99.90;;;11.86;100.00;99050.84;5246536;28;20041;-46
2023/10/26 07:39:07;;;;;;;10.20;4.68;;;11.90;99.90;;;11.93;100.00;99047.38;5247425;28;20032;-45
2023/10/26 07:41:39;;;;;;;8.23;4.13;;;11.90;99.90;;;11.92;100.00;99037.81;5259048;28;20431;-46
2023/10/26 07:44:13;;;;;;;8.20;4.15;;;11.90;99.90;;;11.90;100.00;99043.03;5262081;28;20134;-47
2023/10/26 07:46:45;;;;;;;8.82;4.15;;;11.90;99.90;;;11.88;100.00;99036.09;5243258;28;20063;-45
2023/10/26 07:49:17;;;;;;;8.98;4.43;;;11.90;99.90;;;11.86;100.00;99037.78;5242309;28;20043;-46
2023/10/26 07:51:50;;;;;;;11.88;5.53;;;11.90;99.90;;;11.82;100.00;99033.47;5240943;28;20051;-45
2023/10/26 07:54:22;;;;;;;12.05;6.18;;;11.80;99.90;;;11.80;100.00;99036.03;5243447;28;20047;-45
2023/10/26 07:56:55;;;;;;;12.70;5.68;;;11.80;99.90;;;11.82;100.00;99033.47;5243361;28;20052;-45
2023/10/26 07:59:31;;;;;;;10.07;5.28;;;11.80;99.90;;;11.85;100.00;99036.06;5243076;28;20052;-46
2023/10/26 08:02:03;;;;;;;10.70;4.75;;;11.80;99.90;;;11.89;100.00;99035.22;5248863;28;20052;-46
2023/10/26 08:04:36;;;;;;;11.23;5.60;;;11.80;99.90;;;11.92;100.00;99037.81;5246696;28;20075;-46
2023/10/26 08:07:09;;;;;;;14.68;6.60;;;11.90;99.90;;;11.91;100.00;99039.53;5241279;28;20633;-46
2023/10/26 08:09:41;;;;;;;17.23;6.88;;;11.90;99.90;;;11.92;100.00;99032.59;5245564;28;20083;-46
2023/10/26 08:12:14;;;;;;;14.00;6.32;;;11.90;99.90;;;11.95;100.00;99032.59;5248585;28;20032;-46
2023/10/26 08:14:47;;;;;;;10.82;4.97;;;11.90;99.90;;;12.00;100.00;99045.66;5241541;28;20455;-46
2023/10/26 08:17:20;;;;;;;16.10;5.93;;;12.00;99.90;;;12.00;100.00;99043.94;5239940;28;20503;-46
2023/10/26 08:19:54;;;;;;;12.38;6.03;;;12.00;99.90;;;12.01;100.00;99047.41;5262215;28;20135;-46
2023/10/26 08:22:29;;;;;;;15.45;6.85;;;12.00;99.90;;;11.99;100.00;99049.13;5237391;28;20077;-46
2023/10/26 08:25:01;;;;;;;13.52;6.40;;;12.00;99.90;;;11.94;100.00;99046.53;5251301;28;20048;-46
2023/10/26 08:27:35;;;;;;;11.60;5.20;;;11.90;99.90;;;11.93;100.00;99042.16;5246783;28;20052;-46
2023/10/26 08:30:11;;;;;;;11.68;5.88;;;11.90;99.90;;;11.95;100.00;99040.44;5259216;28;20067;-46
2023/10/26 08:32:43;;;;;;;9.20;4.70;;;11.90;99.90;;;11.98;100.00;99044.78;5246450;28;20040;-46
2023/10/26 08:35:16;;;;;;;14.05;6.20;;;12.00;99.90;;;12.01;100.00;99037.84;5260600;28;20076;-46
2023/10/26 08:37:49;;;;;;;11.45;5.28;;;12.00;99.90;;;12.04;100.00;99043.03;5240534;28;20415;-46
2023/10/26 08:40:21;;;;;;;12.55;5.43;;;12.00;99.90;;;12.06;100.00;99054.38;5246306;28;20052;-46
2023/10/26 08:42:54;;;;;;;11.35;5.20;;;12.00;99.90;;;12.08;100.00;99060.47;5243440;28;20048;-46
2023/10/26 08:45:31;;;;;;;9.02;4.28;;;12.00;99.90;;;12.15;100.00;99063.97;5240361;28;20048;-46
2023/10/26 08:48:05;;;;;;;10.80;5.20;;;12.10;99.90;;;12.18;100.00;99062.22;5242091;28;20522;-46
2023/10/26 08:50:39;;;;;;;10.80;4.90;;;12.10;99.90;;;12.21;100.00;99066.59;5241388;28;20059;-46
2023/10/26 08:53:11;;;;;;;9.98;4.78;;;12.10;99.90;;;12.25;100.00;99070.06;5242228;28;20036;-46
2023/10/26 08:55:45;;;;;;;10.52;4.63;;;12.20;99.90;;;12.29;100.00;99064.84;5249898;28;20434;-46
2023/10/26 08:58:21;;;;;;;11.07;4.85;;;12.20;99.90;;;12.38;100.00;99066.56;5238169;28;20052;-46
2023/10/26 09:00:55;;;;;;;11.20;4.93;;;12.30;99.90;;;12.43;100.00;99083.13;5261716;28;20055;-46
2023/10/26 09:03:27;;;;;;;8.88;4.82;;;12.30;99.90;;;12.44;100.00;99077.03;5245844;28;20048;-46
2023/10/26 09:06:00;;;;;;;12.00;5.07;;;12.40;99.90;;;12.44;100.00;99074.41;5242351;28;20060;-46
2023/10/26 09:08:32;;;;;;;11.45;5.20;;;12.40;99.90;;;12.46;100.00;99085.75;5246559;28;20055;-46
2023/10/26 09:11:23;;;;;;;12.05;5.85;;;12.30;99.90;;;12.46;100.00;99089.25;5261872;28;20052;-46
2023/10/26 09:13:55;;;;;;;11.30;5.22;;;12.40;99.90;;;12.47;100.00;99092.72;5246077;28;20070;-47
2023/10/26 09:16:37;;;;;;;12.13;5.70;;;12.40;99.90;;;12.45;100.00;99092.72;5245546;28;20048;-46
2023/10/26 09:19:10;;;;;;;18.23;7.55;;;12.40;99.90;;;12.44;100.00;99101.41;5259867;28;20051;-46
2023/10/26 09:21:51;;;;;;;17.55;7.38;;;12.40;99.90;;;12.41;100.00;99101.41;5244861;28;20472;-50
2023/10/26 09:24:26;;;;;;;17.52;8.07;;;12.40;99.90;;;12.46;100.00;99109.28;5244479;28;20055;-46
2023/10/26 09:27:00;;;;;;;20.08;7.72;;;12.40;99.90;;;12.47;100.00;99100.56;5242140;28;20146;-46
2023/10/26 09:29:37;;;;;;;15.15;6.25;;;12.40;99.90;;;12.44;100.00;99096.19;5243822;28;20055;-46
2023/10/26 09:32:11;;;;;;;14.75;7.20;;;12.40;99.90;;;12.43;100.00;99088.34;5216772;28;20039;-46
2023/10/26 09:34:46;;;;;;;16.25;7.40;;;12.40;99.90;;;12.44;100.00;99084.88;5228074;28;20048;-46
2023/10/26 09:37:18;;;;;;;12.63;6.35;;;12.40;99.90;;;12.47;100.00;99092.72;5242858;28;20039;-46
2023/10/26 09:39:53;;;;;;;12.18;6.13;;;12.40;99.90;;;12.51;100.00;99091.81;5240740;28;20052;-46
2023/10/26 09:42:26;;;;;;;10.75;5.35;;;12.40;99.90;;;12.55;100.00;99090.97;5245056;28;20051;-45
2023/10/26 09:44:59;;;;;;;12.18;5.25;;;12.50;99.90;;;12.62;100.00;99092.72;5252306;28;20538;-45
2023/10/26 09:47:33;;;;;;;12.15;5.90;;;12.50;99.90;;;12.65;100.00;99087.50;5243256;28;20048;-45
2023/10/26 09:50:06;;;;;;;10.98;5.05;;;12.60;99.90;;;12.74;100.00;99084.00;5243532;28;20045;-46
2023/10/26 09:52:41;;;;;;;10.52;5.20;;;12.60;99.90;;;12.81;100.00;99085.72;5247080;28;20040;-46
2023/10/26 09:55:15;;;;;;;11.05;5.00;;;12.70;99.90;;;12.84;100.00;99090.06;5248931;28;20135;-46
2023/10/26 09:57:56;;;;;;;8.85;4.47;;;12.70;99.90;;;12.86;100.00;99088.34;5239232;28;20087;-46
2023/10/26 10:00:31;;;;;;;;;;;12.70;99.90;;;12.91;100.00;99081.34;5256593;28;20044;-45
2023/10/26 10:03:12;;;;;;;9.73;4.15;;;12.80;99.90;;;13.04;100.00;99075.22;5245736;28;20005;-45
2023/10/26 10:05:46;;;;;;;8.20;4.20;;;12.90;99.90;;;13.22;100.00;99069.09;5248011;28;20052;-45
2023/10/26 10:09:01;;;;;;;8.00;4.15;;;13.00;99.90;;;13.38;100.00;99072.53;5242477;28;20044;-45
2023/10/26 10:11:34;;;;;;;8.48;3.78;;;13.10;99.90;;;13.41;100.00;99072.50;5243555;28;20056;-45
2023/10/26 10:14:07;;;;;;;7.07;3.90;;;13.20;99.90;;;13.40;100.00;99066.41;5245001;28;20032;-44
2023/10/26 10:16:52;;;;;;;8.25;4.07;;;13.20;99.90;;;13.44;100.00;99054.19;5243700;28;20040;-45
2023/10/26 10:19:28;;;;;;;8.32;4.38;;;13.30;99.90;;;13.49;100.00;99049.78;5248049;28;20056;-45
2023/10/26 10:22:00;;;;;;;6.50;3.67;;;13.30;99.90;;;13.56;100.00;99051.50;5240487;28;20051;-45
2023/10/26 10:24:51;;;;;;;7.60;4.18;;;13.40;99.90;;;13.67;100.00;99044.47;5248178;28;20155;-44
2023/10/26 10:27:23;;;;;;;6.80;3.55;;;13.50;99.90;;;13.78;100.00;99058.38;5245615;28;20418;-46
2023/10/26 10:29:59;;;;;;;8.00;3.92;;;13.60;99.90;;;13.87;100.00;99049.59;5247294;28;20040;-45
2023/10/26 10:32:52;;;;;;;7.15;3.78;;;13.70;99.90;;;13.97;100.00;99058.25;5247386;28;20380;-45
2023/10/26 10:35:43;;;;;;;7.55;3.97;;;13.70;99.90;;;14.06;100.00;99053.81;5238307;28;20057;-45
2023/10/26 10:38:22;;;;;;;7.00;3.83;;;13.80;99.90;;;14.16;100.00;99053.78;5240692;28;20040;-45